sensor_id;sensor_type;location;lat;lon;timestamp;temperature;humidity
10155;DHT22;5118;48.570;7.916;2022-12-17T00:01:58;-8.00;99.90
10155;DHT22;5118;48.570;7.916;2022-12-17T00:04:44;-8.00;99.90
10155;DHT22;5118;48.570;7.916;2022-12-17T00:07:30;-8.00;99.90
10155;DHT22;5118;48.570;7.916;2022-12-17T00:10:16;-8.00;99.90
10155;DHT22;5118;48.570;7.916;2022-12-17T00:13:02;-7.90;99.90
10155;DHT22;5118;48.570;7.916;2022-12-17T00:15:50;-7.90;99.90
10155;DHT22;5118;48.570;7.916;2022-12-17T00:18:38;-7.90;99.90
10155;DHT22;5118;48.570;7.916;2022-12-17T00:21:23;-7.80;99.90
10155;DHT22;5118;48.570;7.916;2022-12-17T00:24:14;-7.90;99.90
10155;DHT22;5118;48.570;7.916;2022-12-17T00:27:00;-7.90;99.90
10155;DHT22;5118;48.570;7.916;2022-12-17T00:30:00;-7.90;99.90
10155;DHT22;5118;48.570;7.916;2022-12-17T00:32:46;-8.00;99.90
10155;DHT22;5118;48.570;7.916;2022-12-17T00:35:33;-8.00;99.90
10155;DHT22;5118;48.570;7.916;2022-12-17T00:38:19;-8.10;99.90
10155;DHT22;5118;48.570;7.916;2022-12-17T00:41:05;-8.10;99.90
10155;DHT22;5118;48.570;7.916;2022-12-17T00:43:51;-8.10;99.90
10155;DHT22;5118;48.570;7.916;2022-12-17T00:46:37;-8.20;99.90
10155;DHT22;5118;48.570;7.916;2022-12-17T00:49:24;-8.30;99.90
10155;DHT22;5118;48.570;7.916;2022-12-17T00:52:12;-8.40;99.90
10155;DHT22;5118;48.570;7.916;2022-12-17T00:54:57;-8.40;99.90
10155;DHT22;5118;48.570;7.916;2022-12-17T00:57:43;-8.50;99.90
10155;DHT22;5118;48.570;7.916;2022-12-17T01:00:29;-8.50;99.90
10155;DHT22;5118;48.570;7.916;2022-12-17T01:03:15;-8.60;99.90
10155;DHT22;5118;48.570;7.916;2022-12-17T01:06:02;-8.70;99.90
10155;DHT22;5118;48.570;7.916;2022-12-17T01:08:55;-8.70;99.90
10155;DHT22;5118;48.570;7.916;2022-12-17T01:11:41;-8.80;99.90
10155;DHT22;5118;48.570;7.916;2022-12-17T01:14:27;-8.80;99.90
10155;DHT22;5118;48.570;7.916;2022-12-17T01:17:13;-8.80;99.90
10155;DHT22;5118;48.570;7.916;2022-12-17T01:19:59;-8.90;99.90
10155;DHT22;5118;48.570;7.916;2022-12-17T01:22:46;-8.90;99.90
10155;DHT22;5118;48.570;7.916;2022-12-17T01:25:33;-8.90;99.90
10155;DHT22;5118;48.570;7.916;2022-12-17T01:28:22;-8.90;99.90
10155;DHT22;5118;48.570;7.916;2022-12-17T01:31:08;-8.90;99.90
10155;DHT22;5118;48.570;7.916;2022-12-17T01:34:01;-8.90;99.90
10155;DHT22;5118;48.570;7.916;2022-12-17T01:36:46;-8.80;99.90
10155;DHT22;5118;48.570;7.916;2022-12-17T01:39:32;-8.80;99.90
10155;DHT22;5118;48.570;7.916;2022-12-17T01:42:20;-8.70;99.90
10155;DHT22;5118;48.570;7.916;2022-12-17T01:45:09;-8.70;99.90
10155;DHT22;5118;48.570;7.916;2022-12-17T01:47:58;-8.60;99.90
10155;DHT22;5118;48.570;7.916;2022-12-17T01:50:52;-8.60;99.90
10155;DHT22;5118;48.570;7.916;2022-12-17T01:53:43;-8.60;99.90
10155;DHT22;5118;48.570;7.916;2022-12-17T01:56:31;-8.70;99.90
10155;DHT22;5118;48.570;7.916;2022-12-17T01:59:23;-8.80;99.90
10155;DHT22;5118;48.570;7.916;2022-12-17T02:02:10;-8.80;99.90
10155;DHT22;5118;48.570;7.916;2022-12-17T02:04:56;-8.80;99.90
10155;DHT22;5118;48.570;7.916;2022-12-17T02:07:52;-8.80;99.90
10155;DHT22;5118;48.570;7.916;2022-12-17T02:10:44;-8.80;99.90
10155;DHT22;5118;48.570;7.916;2022-12-17T02:13:36;-8.80;99.90
10155;DHT22;5118;48.570;7.916;2022-12-17T02:16:30;-8.70;99.90
10155;DHT22;5118;48.570;7.916;2022-12-17T02:19:30;-8.70;99.90
10155;DHT22;5118;48.570;7.916;2022-12-17T02:22:23;-8.60;99.90
10155;DHT22;5118;48.570;7.916;2022-12-17T02:25:17;-8.50;99.90
10155;DHT22;5118;48.570;7.916;2022-12-17T02:28:08;-8.40;99.90
10155;DHT22;5118;48.570;7.916;2022-12-17T02:30:56;-8.30;99.90
10155;DHT22;5118;48.570;7.916;2022-12-17T02:33:43;-8.10;99.90
10155;DHT22;5118;48.570;7.916;2022-12-17T02:36:33;-8.00;99.90
10155;DHT22;5118;48.570;7.916;2022-12-17T02:39:20;-7.90;99.90
10155;DHT22;5118;48.570;7.916;2022-12-17T02:42:11;-7.70;99.90
10155;DHT22;5118;48.570;7.916;2022-12-17T02:44:59;-7.60;99.90
10155;DHT22;5118;48.570;7.916;2022-12-17T02:47:47;-7.40;99.90
10155;DHT22;5118;48.570;7.916;2022-12-17T02:50:33;-7.30;99.90
10155;DHT22;5118;48.570;7.916;2022-12-17T02:53:20;-7.20;99.90
10155;DHT22;5118;48.570;7.916;2022-12-17T02:56:06;-7.10;99.90
10155;DHT22;5118;48.570;7.916;2022-12-17T02:58:52;-7.00;99.90
10155;DHT22;5118;48.570;7.916;2022-12-17T03:01:50;-6.90;99.90
10155;DHT22;5118;48.570;7.916;2022-12-17T03:04:36;-6.80;99.90
10155;DHT22;5118;48.570;7.916;2022-12-17T03:07:36;-6.70;99.90
10155;DHT22;5118;48.570;7.916;2022-12-17T03:10:22;-6.60;99.90
10155;DHT22;5118;48.570;7.916;2022-12-17T03:13:07;-6.60;99.90
10155;DHT22;5118;48.570;7.916;2022-12-17T03:15:53;-6.50;99.90
10155;DHT22;5118;48.570;7.916;2022-12-17T03:18:41;-6.50;99.90
10155;DHT22;5118;48.570;7.916;2022-12-17T03:21:27;-6.40;99.90
10155;DHT22;5118;48.570;7.916;2022-12-17T03:24:12;-6.30;99.90
10155;DHT22;5118;48.570;7.916;2022-12-17T03:26:58;-6.30;99.90
10155;DHT22;5118;48.570;7.916;2022-12-17T03:29:44;-6.30;99.90
10155;DHT22;5118;48.570;7.916;2022-12-17T03:32:30;-6.20;99.90
10155;DHT22;5118;48.570;7.916;2022-12-17T03:35:29;-6.20;99.90
10155;DHT22;5118;48.570;7.916;2022-12-17T03:38:15;-6.20;99.90
10155;DHT22;5118;48.570;7.916;2022-12-17T03:41:02;-6.20;99.90
10155;DHT22;5118;48.570;7.916;2022-12-17T03:43:47;-6.10;99.90
10155;DHT22;5118;48.570;7.916;2022-12-17T03:46:34;-6.10;99.90
10155;DHT22;5118;48.570;7.916;2022-12-17T03:49:19;-6.10;99.90
10155;DHT22;5118;48.570;7.916;2022-12-17T03:52:07;-6.10;99.90
10155;DHT22;5118;48.570;7.916;2022-12-17T03:54:53;-6.00;99.90
10155;DHT22;5118;48.570;7.916;2022-12-17T03:57:39;-6.00;99.90
10155;DHT22;5118;48.570;7.916;2022-12-17T04:00:25;-6.00;99.90
10155;DHT22;5118;48.570;7.916;2022-12-17T04:03:11;-6.00;99.90
10155;DHT22;5118;48.570;7.916;2022-12-17T04:05:58;-6.00;99.90
10155;DHT22;5118;48.570;7.916;2022-12-17T04:08:45;-6.00;99.90
10155;DHT22;5118;48.570;7.916;2022-12-17T04:11:31;-6.00;99.90
10155;DHT22;5118;48.570;7.916;2022-12-17T04:14:17;-6.00;99.90
10155;DHT22;5118;48.570;7.916;2022-12-17T04:17:02;-6.00;99.90
10155;DHT22;5118;48.570;7.916;2022-12-17T04:19:48;-6.00;99.90
10155;DHT22;5118;48.570;7.916;2022-12-17T04:22:34;-6.00;99.90
10155;DHT22;5118;48.570;7.916;2022-12-17T04:25:21;-6.00;99.90
10155;DHT22;5118;48.570;7.916;2022-12-17T04:28:07;-6.10;99.90
10155;DHT22;5118;48.570;7.916;2022-12-17T04:31:01;-6.10;99.90
10155;DHT22;5118;48.570;7.916;2022-12-17T04:33:47;-6.10;99.90
10155;DHT22;5118;48.570;7.916;2022-12-17T04:36:30;-6.00;99.90
10155;DHT22;5118;48.570;7.916;2022-12-17T04:39:16;-6.00;99.90
10155;DHT22;5118;48.570;7.916;2022-12-17T04:42:06;-6.00;99.90
10155;DHT22;5118;48.570;7.916;2022-12-17T04:44:52;-6.00;99.90
10155;DHT22;5118;48.570;7.916;2022-12-17T04:47:38;-6.00;99.90
10155;DHT22;5118;48.570;7.916;2022-12-17T04:50:24;-6.00;99.90
10155;DHT22;5118;48.570;7.916;2022-12-17T04:53:10;-6.00;99.90
10155;DHT22;5118;48.570;7.916;2022-12-17T04:55:56;-6.00;99.90
10155;DHT22;5118;48.570;7.916;2022-12-17T04:58:45;-6.00;99.90
10155;DHT22;5118;48.570;7.916;2022-12-17T05:01:31;-6.00;99.90
10155;DHT22;5118;48.570;7.916;2022-12-17T05:04:17;-6.00;99.90
10155;DHT22;5118;48.570;7.916;2022-12-17T05:07:02;-6.00;99.90
10155;DHT22;5118;48.570;7.916;2022-12-17T05:09:49;-6.00;99.90
10155;DHT22;5118;48.570;7.916;2022-12-17T05:12:35;-5.90;99.90
10155;DHT22;5118;48.570;7.916;2022-12-17T05:15:22;-6.00;99.90
10155;DHT22;5118;48.570;7.916;2022-12-17T05:18:08;-6.00;99.90
10155;DHT22;5118;48.570;7.916;2022-12-17T05:20:54;-5.90;99.90
10155;DHT22;5118;48.570;7.916;2022-12-17T05:23:40;-6.00;99.90
10155;DHT22;5118;48.570;7.916;2022-12-17T05:26:27;-6.00;99.90
10155;DHT22;5118;48.570;7.916;2022-12-17T05:29:13;-6.00;99.90
10155;DHT22;5118;48.570;7.916;2022-12-17T05:32:00;-5.90;99.90
10155;DHT22;5118;48.570;7.916;2022-12-17T05:34:46;-6.00;99.90
10155;DHT22;5118;48.570;7.916;2022-12-17T05:37:32;-6.00;99.90
10155;DHT22;5118;48.570;7.916;2022-12-17T05:40:17;-6.00;99.90
10155;DHT22;5118;48.570;7.916;2022-12-17T05:43:05;-6.00;99.90
10155;DHT22;5118;48.570;7.916;2022-12-17T05:45:51;-6.00;99.90
10155;DHT22;5118;48.570;7.916;2022-12-17T05:48:38;-6.00;99.90
10155;DHT22;5118;48.570;7.916;2022-12-17T05:51:24;-6.00;99.90
10155;DHT22;5118;48.570;7.916;2022-12-17T05:54:09;-6.10;99.90
10155;DHT22;5118;48.570;7.916;2022-12-17T05:56:55;-6.10;99.90
10155;DHT22;5118;48.570;7.916;2022-12-17T05:59:41;-6.10;99.90
10155;DHT22;5118;48.570;7.916;2022-12-17T06:02:27;-6.20;99.90
10155;DHT22;5118;48.570;7.916;2022-12-17T06:05:14;-6.20;99.90
10155;DHT22;5118;48.570;7.916;2022-12-17T06:08:05;-6.20;99.90
10155;DHT22;5118;48.570;7.916;2022-12-17T06:10:51;-6.30;99.90
10155;DHT22;5118;48.570;7.916;2022-12-17T06:13:37;-6.30;99.90
10155;DHT22;5118;48.570;7.916;2022-12-17T06:16:23;-6.40;99.90
10155;DHT22;5118;48.570;7.916;2022-12-17T06:19:09;-6.40;99.90
10155;DHT22;5118;48.570;7.916;2022-12-17T06:21:56;-6.40;99.90
10155;DHT22;5118;48.570;7.916;2022-12-17T06:24:42;-6.40;99.90
10155;DHT22;5118;48.570;7.916;2022-12-17T06:27:28;-6.50;99.90
10155;DHT22;5118;48.570;7.916;2022-12-17T06:30:14;-6.50;99.90
10155;DHT22;5118;48.570;7.916;2022-12-17T06:33:04;-6.50;99.90
10155;DHT22;5118;48.570;7.916;2022-12-17T06:35:51;-6.50;99.90
10155;DHT22;5118;48.570;7.916;2022-12-17T06:38:48;-6.50;99.90
10155;DHT22;5118;48.570;7.916;2022-12-17T06:41:34;-6.50;99.90
10155;DHT22;5118;48.570;7.916;2022-12-17T06:44:28;-6.60;99.90
10155;DHT22;5118;48.570;7.916;2022-12-17T06:47:13;-6.70;99.90
10155;DHT22;5118;48.570;7.916;2022-12-17T06:49:59;-6.70;99.90
10155;DHT22;5118;48.570;7.916;2022-12-17T06:52:45;-6.80;99.90
10155;DHT22;5118;48.570;7.916;2022-12-17T06:55:34;-6.80;99.90
10155;DHT22;5118;48.570;7.916;2022-12-17T06:58:20;-6.80;99.90
10155;DHT22;5118;48.570;7.916;2022-12-17T07:01:05;-6.80;99.90
10155;DHT22;5118;48.570;7.916;2022-12-17T07:03:51;-6.80;99.90
10155;DHT22;5118;48.570;7.916;2022-12-17T07:06:37;-6.80;99.90
10155;DHT22;5118;48.570;7.916;2022-12-17T07:09:23;-6.70;99.90
10155;DHT22;5118;48.570;7.916;2022-12-17T07:12:10;-6.70;99.90
10155;DHT22;5118;48.570;7.916;2022-12-17T07:14:56;-6.70;99.90
10155;DHT22;5118;48.570;7.916;2022-12-17T07:17:42;-6.70;99.90
10155;DHT22;5118;48.570;7.916;2022-12-17T07:20:27;-6.70;99.90
10155;DHT22;5118;48.570;7.916;2022-12-17T07:23:13;-6.70;99.90
10155;DHT22;5118;48.570;7.916;2022-12-17T07:25:59;-6.50;99.90
10155;DHT22;5118;48.570;7.916;2022-12-17T07:28:46;-6.30;99.90
10155;DHT22;5118;48.570;7.916;2022-12-17T07:31:32;-6.10;99.90
10155;DHT22;5118;48.570;7.916;2022-12-17T07:34:18;-6.00;99.90
10155;DHT22;5118;48.570;7.916;2022-12-17T07:37:04;-5.90;99.90
10155;DHT22;5118;48.570;7.916;2022-12-17T07:39:50;-5.90;99.90
10155;DHT22;5118;48.570;7.916;2022-12-17T07:42:35;-6.00;99.90
10155;DHT22;5118;48.570;7.916;2022-12-17T07:45:24;-6.00;99.90
10155;DHT22;5118;48.570;7.916;2022-12-17T07:48:13;-6.00;99.90
10155;DHT22;5118;48.570;7.916;2022-12-17T07:50:59;-6.00;99.90
10155;DHT22;5118;48.570;7.916;2022-12-17T07:53:44;-5.90;99.90
10155;DHT22;5118;48.570;7.916;2022-12-17T07:56:30;-5.80;99.90
10155;DHT22;5118;48.570;7.916;2022-12-17T07:59:21;-5.80;99.90
10155;DHT22;5118;48.570;7.916;2022-12-17T08:02:09;-5.70;99.90
10155;DHT22;5118;48.570;7.916;2022-12-17T08:04:56;-5.60;99.90
10155;DHT22;5118;48.570;7.916;2022-12-17T08:07:41;-5.60;99.90
10155;DHT22;5118;48.570;7.916;2022-12-17T08:10:27;-5.60;99.90
10155;DHT22;5118;48.570;7.916;2022-12-17T08:13:13;-5.50;99.90
10155;DHT22;5118;48.570;7.916;2022-12-17T08:15:59;-5.40;99.90
10155;DHT22;5118;48.570;7.916;2022-12-17T08:18:46;-5.40;99.90
10155;DHT22;5118;48.570;7.916;2022-12-17T08:21:32;-5.30;99.90
10155;DHT22;5118;48.570;7.916;2022-12-17T08:24:18;-5.30;99.90
10155;DHT22;5118;48.570;7.916;2022-12-17T08:27:04;-5.30;99.90
10155;DHT22;5118;48.570;7.916;2022-12-17T08:29:49;-5.20;99.90
10155;DHT22;5118;48.570;7.916;2022-12-17T08:32:35;-5.20;99.90
10155;DHT22;5118;48.570;7.916;2022-12-17T08:35:22;-5.10;99.90
10155;DHT22;5118;48.570;7.916;2022-12-17T08:38:08;-5.10;99.90
10155;DHT22;5118;48.570;7.916;2022-12-17T08:40:55;-5.00;99.90
10155;DHT22;5118;48.570;7.916;2022-12-17T08:43:40;-4.90;99.90
10155;DHT22;5118;48.570;7.916;2022-12-17T08:46:26;-4.90;99.90
10155;DHT22;5118;48.570;7.916;2022-12-17T08:49:12;-4.80;99.90
10155;DHT22;5118;48.570;7.916;2022-12-17T08:51:59;-4.70;99.90
10155;DHT22;5118;48.570;7.916;2022-12-17T08:54:45;-4.60;99.90
10155;DHT22;5118;48.570;7.916;2022-12-17T08:57:51;-4.60;99.90
10155;DHT22;5118;48.570;7.916;2022-12-17T09:00:37;-4.50;99.90
10155;DHT22;5118;48.570;7.916;2022-12-17T09:03:24;-4.40;99.90
10155;DHT22;5118;48.570;7.916;2022-12-17T09:06:24;-4.40;99.90
10155;DHT22;5118;48.570;7.916;2022-12-17T09:09:11;-4.30;99.90
10155;DHT22;5118;48.570;7.916;2022-12-17T09:11:57;-4.20;99.90
10155;DHT22;5118;48.570;7.916;2022-12-17T09:14:42;-4.30;99.90
10155;DHT22;5118;48.570;7.916;2022-12-17T09:17:28;-4.30;99.90
10155;DHT22;5118;48.570;7.916;2022-12-17T09:20:14;-4.30;99.90
10155;DHT22;5118;48.570;7.916;2022-12-17T09:22:59;-4.30;99.90
10155;DHT22;5118;48.570;7.916;2022-12-17T09:25:52;-4.30;99.90
10155;DHT22;5118;48.570;7.916;2022-12-17T09:28:38;-4.20;99.90
10155;DHT22;5118;48.570;7.916;2022-12-17T09:31:23;-4.10;99.90
10155;DHT22;5118;48.570;7.916;2022-12-17T09:34:10;-4.10;99.90
10155;DHT22;5118;48.570;7.916;2022-12-17T09:36:56;-4.00;99.90
10155;DHT22;5118;48.570;7.916;2022-12-17T09:39:42;-3.90;99.90
10155;DHT22;5118;48.570;7.916;2022-12-17T09:42:33;-4.00;99.90
10155;DHT22;5118;48.570;7.916;2022-12-17T09:45:30;-4.10;99.90
10155;DHT22;5118;48.570;7.916;2022-12-17T09:48:27;-4.20;99.90
10155;DHT22;5118;48.570;7.916;2022-12-17T09:51:20;-4.10;99.90
10155;DHT22;5118;48.570;7.916;2022-12-17T09:54:13;-4.20;99.90
10155;DHT22;5118;48.570;7.916;2022-12-17T09:57:01;-4.10;99.90
10155;DHT22;5118;48.570;7.916;2022-12-17T09:59:50;-4.10;99.90
10155;DHT22;5118;48.570;7.916;2022-12-17T10:02:38;-4.10;99.90
10155;DHT22;5118;48.570;7.916;2022-12-17T10:05:26;-4.10;99.90
10155;DHT22;5118;48.570;7.916;2022-12-17T10:08:15;-4.10;99.90
10155;DHT22;5118;48.570;7.916;2022-12-17T10:11:16;-4.10;99.90
10155;DHT22;5118;48.570;7.916;2022-12-17T10:14:09;-4.00;99.90
10155;DHT22;5118;48.570;7.916;2022-12-17T10:16:58;-4.00;99.90
10155;DHT22;5118;48.570;7.916;2022-12-17T10:19:44;-3.90;99.90
10155;DHT22;5118;48.570;7.916;2022-12-17T10:22:42;-3.80;99.90
10155;DHT22;5118;48.570;7.916;2022-12-17T10:25:28;-3.70;99.90
10155;DHT22;5118;48.570;7.916;2022-12-17T10:28:16;-3.70;99.90
10155;DHT22;5118;48.570;7.916;2022-12-17T10:31:07;-3.60;99.90
10155;DHT22;5118;48.570;7.916;2022-12-17T10:33:56;-3.60;99.90
10155;DHT22;5118;48.570;7.916;2022-12-17T10:36:45;-3.60;99.90
10155;DHT22;5118;48.570;7.916;2022-12-17T10:39:34;-3.70;99.90
10155;DHT22;5118;48.570;7.916;2022-12-17T10:42:22;-3.70;99.90
10155;DHT22;5118;48.570;7.916;2022-12-17T10:45:22;-3.80;99.90
10155;DHT22;5118;48.570;7.916;2022-12-17T10:48:17;-3.70;99.90
10155;DHT22;5118;48.570;7.916;2022-12-17T10:51:17;-3.70;99.90
10155;DHT22;5118;48.570;7.916;2022-12-17T10:54:09;-3.60;99.90
10155;DHT22;5118;48.570;7.916;2022-12-17T10:57:05;-3.60;99.90
10155;DHT22;5118;48.570;7.916;2022-12-17T10:59:52;-3.50;99.90
10155;DHT22;5118;48.570;7.916;2022-12-17T11:02:39;-3.50;99.90
10155;DHT22;5118;48.570;7.916;2022-12-17T11:05:40;-3.30;99.90
10155;DHT22;5118;48.570;7.916;2022-12-17T11:08:29;-3.20;99.90
10155;DHT22;5118;48.570;7.916;2022-12-17T11:11:16;-3.20;99.90
10155;DHT22;5118;48.570;7.916;2022-12-17T11:14:03;-3.30;99.90
10155;DHT22;5118;48.570;7.916;2022-12-17T11:16:52;-3.40;99.90
10155;DHT22;5118;48.570;7.916;2022-12-17T11:19:43;-3.40;99.90
10155;DHT22;5118;48.570;7.916;2022-12-17T11:22:36;-3.30;99.90
10155;DHT22;5118;48.570;7.916;2022-12-17T11:25:41;-3.30;99.90
10155;DHT22;5118;48.570;7.916;2022-12-17T11:28:31;-3.10;99.90
10155;DHT22;5118;48.570;7.916;2022-12-17T11:31:33;-3.00;99.90
10155;DHT22;5118;48.570;7.916;2022-12-17T11:34:26;-2.90;99.90
10155;DHT22;5118;48.570;7.916;2022-12-17T11:37:17;-2.90;99.90
10155;DHT22;5118;48.570;7.916;2022-12-17T11:40:17;-2.70;99.90
10155;DHT22;5118;48.570;7.916;2022-12-17T11:43:14;-2.60;99.90
10155;DHT22;5118;48.570;7.916;2022-12-17T11:46:08;-2.50;99.90
10155;DHT22;5118;48.570;7.916;2022-12-17T11:49:04;-2.40;99.90
10155;DHT22;5118;48.570;7.916;2022-12-17T11:52:00;-2.40;99.90
10155;DHT22;5118;48.570;7.916;2022-12-17T11:54:57;-2.40;99.90
10155;DHT22;5118;48.570;7.916;2022-12-17T11:57:51;-2.40;99.90
10155;DHT22;5118;48.570;7.916;2022-12-17T12:00:48;-2.50;99.90
10155;DHT22;5118;48.570;7.916;2022-12-17T12:03:44;-2.40;99.90
10155;DHT22;5118;48.570;7.916;2022-12-17T12:06:41;-2.40;99.90
10155;DHT22;5118;48.570;7.916;2022-12-17T12:09:34;-2.30;99.90
10155;DHT22;5118;48.570;7.916;2022-12-17T12:12:34;-2.30;99.90
10155;DHT22;5118;48.570;7.916;2022-12-17T12:15:26;-2.30;99.90
10155;DHT22;5118;48.570;7.916;2022-12-17T12:18:24;-2.40;99.90
10155;DHT22;5118;48.570;7.916;2022-12-17T12:21:26;-2.50;99.90
10155;DHT22;5118;48.570;7.916;2022-12-17T12:24:28;-2.60;99.90
10155;DHT22;5118;48.570;7.916;2022-12-17T12:27:22;-2.60;99.90
10155;DHT22;5118;48.570;7.916;2022-12-17T12:30:14;-2.60;99.90
10155;DHT22;5118;48.570;7.916;2022-12-17T12:33:07;-2.50;99.90
10155;DHT22;5118;48.570;7.916;2022-12-17T12:36:01;-2.50;99.90
10155;DHT22;5118;48.570;7.916;2022-12-17T12:38:51;-2.50;99.90
10155;DHT22;5118;48.570;7.916;2022-12-17T12:41:43;-2.50;99.90
10155;DHT22;5118;48.570;7.916;2022-12-17T12:44:53;-2.60;99.90
10155;DHT22;5118;48.570;7.916;2022-12-17T12:47:45;-2.70;99.90
10155;DHT22;5118;48.570;7.916;2022-12-17T12:50:40;-2.70;99.90
10155;DHT22;5118;48.570;7.916;2022-12-17T12:53:31;-2.70;99.90
10155;DHT22;5118;48.570;7.916;2022-12-17T12:56:27;-2.60;99.90
10155;DHT22;5118;48.570;7.916;2022-12-17T12:59:24;-2.60;99.90
10155;DHT22;5118;48.570;7.916;2022-12-17T13:02:25;-2.60;99.90
10155;DHT22;5118;48.570;7.916;2022-12-17T13:05:27;-2.60;99.90
10155;DHT22;5118;48.570;7.916;2022-12-17T13:08:02;-2.60;99.90
10155;DHT22;5118;48.570;7.916;2022-12-17T13:10:33;-2.50;99.90
10155;DHT22;5118;48.570;7.916;2022-12-17T13:13:10;-2.50;99.90
10155;DHT22;5118;48.570;7.916;2022-12-17T13:15:45;-2.50;99.90
10155;DHT22;5118;48.570;7.916;2022-12-17T13:18:19;-2.50;99.90
10155;DHT22;5118;48.570;7.916;2022-12-17T13:21:01;-2.50;99.90
10155;DHT22;5118;48.570;7.916;2022-12-17T13:23:33;-2.60;99.90
10155;DHT22;5118;48.570;7.916;2022-12-17T13:26:13;-2.60;99.90
10155;DHT22;5118;48.570;7.916;2022-12-17T13:28:47;-2.60;99.90
10155;DHT22;5118;48.570;7.916;2022-12-17T13:31:19;-2.60;99.90
10155;DHT22;5118;48.570;7.916;2022-12-17T13:33:53;-2.60;99.90
10155;DHT22;5118;48.570;7.916;2022-12-17T13:36:32;-2.50;99.90
10155;DHT22;5118;48.570;7.916;2022-12-17T13:39:05;-2.50;99.90
10155;DHT22;5118;48.570;7.916;2022-12-17T13:41:37;-2.50;99.90
10155;DHT22;5118;48.570;7.916;2022-12-17T13:44:17;-2.50;99.90
10155;DHT22;5118;48.570;7.916;2022-12-17T13:46:51;-2.50;99.90
10155;DHT22;5118;48.570;7.916;2022-12-17T13:49:21;-2.50;99.90
10155;DHT22;5118;48.570;7.916;2022-12-17T13:52:00;-2.50;99.90
10155;DHT22;5118;48.570;7.916;2022-12-17T13:54:37;-2.50;99.90
10155;DHT22;5118;48.570;7.916;2022-12-17T13:57:09;-2.50;99.90
10155;DHT22;5118;48.570;7.916;2022-12-17T13:59:37;-2.60;99.90
10155;DHT22;5118;48.570;7.916;2022-12-17T14:02:24;-2.60;99.90
10155;DHT22;5118;48.570;7.916;2022-12-17T14:04:54;-2.60;99.90
10155;DHT22;5118;48.570;7.916;2022-12-17T14:07:31;-2.70;99.90
10155;DHT22;5118;48.570;7.916;2022-12-17T14:10:02;-2.70;99.90
10155;DHT22;5118;48.570;7.916;2022-12-17T14:12:32;-2.70;99.90
10155;DHT22;5118;48.570;7.916;2022-12-17T14:15:03;-2.80;99.90
10155;DHT22;5118;48.570;7.916;2022-12-17T14:17:37;-2.80;99.90
10155;DHT22;5118;48.570;7.916;2022-12-17T14:20:12;-2.80;99.90
10155;DHT22;5118;48.570;7.916;2022-12-17T14:22:44;-2.80;99.90
10155;DHT22;5118;48.570;7.916;2022-12-17T14:25:18;-2.80;99.90
10155;DHT22;5118;48.570;7.916;2022-12-17T14:27:55;-2.80;99.90
10155;DHT22;5118;48.570;7.916;2022-12-17T14:30:32;-2.90;99.90
10155;DHT22;5118;48.570;7.916;2022-12-17T14:33:24;-3.00;99.90
10155;DHT22;5118;48.570;7.916;2022-12-17T14:35:54;-3.10;99.90
10155;DHT22;5118;48.570;7.916;2022-12-17T14:38:23;-3.20;99.90
10155;DHT22;5118;48.570;7.916;2022-12-17T14:41:12;-3.30;99.90
10155;DHT22;5118;48.570;7.916;2022-12-17T14:44:01;-3.30;99.90
10155;DHT22;5118;48.570;7.916;2022-12-17T14:46:31;-3.50;99.90
10155;DHT22;5118;48.570;7.916;2022-12-17T14:49:02;-3.50;99.90
10155;DHT22;5118;48.570;7.916;2022-12-17T14:51:33;-3.60;99.90
10155;DHT22;5118;48.570;7.916;2022-12-17T14:54:15;-3.60;99.90
10155;DHT22;5118;48.570;7.916;2022-12-17T14:56:45;-3.60;99.90
10155;DHT22;5118;48.570;7.916;2022-12-17T14:59:23;-3.60;99.90
10155;DHT22;5118;48.570;7.916;2022-12-17T15:01:52;-3.60;99.90
10155;DHT22;5118;48.570;7.916;2022-12-17T15:04:22;-3.60;99.90
10155;DHT22;5118;48.570;7.916;2022-12-17T15:06:53;-3.60;99.90
10155;DHT22;5118;48.570;7.916;2022-12-17T15:09:21;-3.60;99.90
10155;DHT22;5118;48.570;7.916;2022-12-17T15:11:50;-3.60;99.90
10155;DHT22;5118;48.570;7.916;2022-12-17T15:14:18;-3.50;99.90
10155;DHT22;5118;48.570;7.916;2022-12-17T15:16:48;-3.50;99.90
10155;DHT22;5118;48.570;7.916;2022-12-17T15:19:16;-3.50;99.90
10155;DHT22;5118;48.570;7.916;2022-12-17T15:21:45;-3.60;99.90
10155;DHT22;5118;48.570;7.916;2022-12-17T15:24:17;-3.60;99.90
10155;DHT22;5118;48.570;7.916;2022-12-17T15:26:46;-3.70;99.90
10155;DHT22;5118;48.570;7.916;2022-12-17T15:29:15;-3.70;99.90
10155;DHT22;5118;48.570;7.916;2022-12-17T15:31:43;-3.80;99.90
10155;DHT22;5118;48.570;7.916;2022-12-17T15:34:13;-3.80;99.90
10155;DHT22;5118;48.570;7.916;2022-12-17T15:36:41;-3.80;99.90
10155;DHT22;5118;48.570;7.916;2022-12-17T15:39:10;-3.80;99.90
10155;DHT22;5118;48.570;7.916;2022-12-17T15:41:38;-3.80;99.90
10155;DHT22;5118;48.570;7.916;2022-12-17T15:44:24;-3.70;99.90
10155;DHT22;5118;48.570;7.916;2022-12-17T15:46:52;-3.70;99.90
10155;DHT22;5118;48.570;7.916;2022-12-17T15:49:22;-3.70;99.90
10155;DHT22;5118;48.570;7.916;2022-12-17T15:51:50;-3.70;99.90
10155;DHT22;5118;48.570;7.916;2022-12-17T15:54:18;-3.70;99.90
10155;DHT22;5118;48.570;7.916;2022-12-17T15:56:51;-3.70;99.90
10155;DHT22;5118;48.570;7.916;2022-12-17T15:59:20;-3.70;99.90
10155;DHT22;5118;48.570;7.916;2022-12-17T16:01:48;-3.70;99.90
10155;DHT22;5118;48.570;7.916;2022-12-17T16:04:17;-3.70;99.90
10155;DHT22;5118;48.570;7.916;2022-12-17T16:06:53;-3.70;99.90
10155;DHT22;5118;48.570;7.916;2022-12-17T16:09:21;-3.70;99.90
10155;DHT22;5118;48.570;7.916;2022-12-17T16:11:52;-3.70;99.90
10155;DHT22;5118;48.570;7.916;2022-12-17T16:14:21;-3.70;99.90
10155;DHT22;5118;48.570;7.916;2022-12-17T16:16:49;-3.70;99.90
10155;DHT22;5118;48.570;7.916;2022-12-17T16:19:18;-3.70;99.90
10155;DHT22;5118;48.570;7.916;2022-12-17T16:21:46;-3.70;99.90
10155;DHT22;5118;48.570;7.916;2022-12-17T16:24:16;-3.70;99.90
10155;DHT22;5118;48.570;7.916;2022-12-17T16:26:45;-3.70;99.90
10155;DHT22;5118;48.570;7.916;2022-12-17T16:29:13;-3.70;99.90
10155;DHT22;5118;48.570;7.916;2022-12-17T16:31:42;-3.70;99.90
10155;DHT22;5118;48.570;7.916;2022-12-17T16:34:11;-3.70;99.90
10155;DHT22;5118;48.570;7.916;2022-12-17T16:36:39;-3.70;99.90
10155;DHT22;5118;48.570;7.916;2022-12-17T16:39:14;-3.70;99.90
10155;DHT22;5118;48.570;7.916;2022-12-17T16:41:44;-3.70;99.90
10155;DHT22;5118;48.570;7.916;2022-12-17T16:44:13;-3.70;99.90
10155;DHT22;5118;48.570;7.916;2022-12-17T16:46:42;-3.80;99.90
10155;DHT22;5118;48.570;7.916;2022-12-17T16:49:14;-3.70;99.90
10155;DHT22;5118;48.570;7.916;2022-12-17T16:51:45;-3.80;99.90
10155;DHT22;5118;48.570;7.916;2022-12-17T16:54:27;-3.80;99.90
10155;DHT22;5118;48.570;7.916;2022-12-17T16:56:57;-3.80;99.90
10155;DHT22;5118;48.570;7.916;2022-12-17T16:59:26;-3.80;99.90
10155;DHT22;5118;48.570;7.916;2022-12-17T17:01:55;-3.80;99.90
10155;DHT22;5118;48.570;7.916;2022-12-17T17:04:24;-3.80;99.90
10155;DHT22;5118;48.570;7.916;2022-12-17T17:06:53;-3.70;99.90
10155;DHT22;5118;48.570;7.916;2022-12-17T17:09:23;-3.70;99.90
10155;DHT22;5118;48.570;7.916;2022-12-17T17:11:54;-3.70;99.90
10155;DHT22;5118;48.570;7.916;2022-12-17T17:14:25;-3.70;99.90
10155;DHT22;5118;48.570;7.916;2022-12-17T17:16:54;-3.70;99.90
10155;DHT22;5118;48.570;7.916;2022-12-17T17:19:22;-3.70;99.90
10155;DHT22;5118;48.570;7.916;2022-12-17T17:21:51;-3.70;99.90
10155;DHT22;5118;48.570;7.916;2022-12-17T17:24:21;-3.70;99.90
10155;DHT22;5118;48.570;7.916;2022-12-17T17:26:52;-3.70;99.90
10155;DHT22;5118;48.570;7.916;2022-12-17T17:29:21;-3.70;99.90
10155;DHT22;5118;48.570;7.916;2022-12-17T17:31:51;-3.60;99.90
10155;DHT22;5118;48.570;7.916;2022-12-17T17:34:38;-3.60;99.90